sensor_id;sensor_type;location;lat;lon;timestamp;temperature;humidity
37938;DHT22;23763;48.130;11.602;2023-08-07T00:00:41;13.60;99.90
37938;DHT22;23763;48.130;11.602;2023-08-07T00:03:06;13.60;99.90
37938;DHT22;23763;48.130;11.602;2023-08-07T00:05:32;13.60;99.90
37938;DHT22;23763;48.130;11.602;2023-08-07T00:07:58;13.50;99.90
37938;DHT22;23763;48.130;11.602;2023-08-07T00:10:23;13.60;99.90
37938;DHT22;23763;48.130;11.602;2023-08-07T00:12:50;13.50;99.90
37938;DHT22;23763;48.130;11.602;2023-08-07T00:15:15;13.50;99.90
37938;DHT22;23763;48.130;11.602;2023-08-07T00:17:41;13.50;99.90
37938;DHT22;23763;48.130;11.602;2023-08-07T00:20:07;13.40;99.90
37938;DHT22;23763;48.130;11.602;2023-08-07T00:22:33;13.30;99.90
37938;DHT22;23763;48.130;11.602;2023-08-07T00:24:58;13.40;99.90
37938;DHT22;23763;48.130;11.602;2023-08-07T00:27:24;13.30;99.90
37938;DHT22;23763;48.130;11.602;2023-08-07T00:29:50;13.30;99.90
37938;DHT22;23763;48.130;11.602;2023-08-07T00:32:15;13.30;99.90
37938;DHT22;23763;48.130;11.602;2023-08-07T00:34:41;13.20;99.90
37938;DHT22;23763;48.130;11.602;2023-08-07T00:37:06;13.20;99.90
37938;DHT22;23763;48.130;11.602;2023-08-07T00:39:32;13.20;99.90
37938;DHT22;23763;48.130;11.602;2023-08-07T00:41:57;13.30;99.90
37938;DHT22;23763;48.130;11.602;2023-08-07T00:44:23;13.20;99.90
37938;DHT22;23763;48.130;11.602;2023-08-07T00:46:49;13.10;99.90
37938;DHT22;23763;48.130;11.602;2023-08-07T00:49:15;13.00;99.90
37938;DHT22;23763;48.130;11.602;2023-08-07T00:51:42;13.00;99.90
37938;DHT22;23763;48.130;11.602;2023-08-07T00:54:10;12.90;99.90
37938;DHT22;23763;48.130;11.602;2023-08-07T00:56:37;12.70;99.90
37938;DHT22;23763;48.130;11.602;2023-08-07T00:59:03;12.60;99.90
37938;DHT22;23763;48.130;11.602;2023-08-07T01:01:29;12.60;99.90
37938;DHT22;23763;48.130;11.602;2023-08-07T01:03:54;12.50;99.90
37938;DHT22;23763;48.130;11.602;2023-08-07T01:06:20;12.40;99.90
37938;DHT22;23763;48.130;11.602;2023-08-07T01:08:46;12.40;99.90
37938;DHT22;23763;48.130;11.602;2023-08-07T01:17:03;12.10;99.90
37938;DHT22;23763;48.130;11.602;2023-08-07T01:19:30;12.10;99.90
37938;DHT22;23763;48.130;11.602;2023-08-07T01:22:16;12.00;99.90
37938;DHT22;23763;48.130;11.602;2023-08-07T01:24:47;12.00;99.90
37938;DHT22;23763;48.130;11.602;2023-08-07T01:27:28;12.00;99.90
37938;DHT22;23763;48.130;11.602;2023-08-07T01:33:16;11.90;99.90
37938;DHT22;23763;48.130;11.602;2023-08-07T01:35:46;11.80;99.90
37938;DHT22;23763;48.130;11.602;2023-08-07T01:38:13;11.80;99.90
37938;DHT22;23763;48.130;11.602;2023-08-07T01:40:40;11.80;99.90
37938;DHT22;23763;48.130;11.602;2023-08-07T01:43:07;11.70;99.90
37938;DHT22;23763;48.130;11.602;2023-08-07T01:45:33;11.70;99.90
37938;DHT22;23763;48.130;11.602;2023-08-07T01:47:59;11.70;99.90
37938;DHT22;23763;48.130;11.602;2023-08-07T01:50:24;11.60;99.90
37938;DHT22;23763;48.130;11.602;2023-08-07T01:52:50;11.60;99.90
37938;DHT22;23763;48.130;11.602;2023-08-07T01:55:18;11.60;99.90
37938;DHT22;23763;48.130;11.602;2023-08-07T01:57:44;11.60;99.90
37938;DHT22;23763;48.130;11.602;2023-08-07T02:00:10;11.50;99.90
37938;DHT22;23763;48.130;11.602;2023-08-07T02:02:36;11.50;99.90
37938;DHT22;23763;48.130;11.602;2023-08-07T02:05:02;11.50;99.90
37938;DHT22;23763;48.130;11.602;2023-08-07T02:07:28;11.40;99.90
37938;DHT22;23763;48.130;11.602;2023-08-07T02:09:54;11.40;99.90
37938;DHT22;23763;48.130;11.602;2023-08-07T02:12:19;11.40;99.90
37938;DHT22;23763;48.130;11.602;2023-08-07T02:14:45;11.40;99.90
37938;DHT22;23763;48.130;11.602;2023-08-07T02:17:10;11.40;99.90
37938;DHT22;23763;48.130;11.602;2023-08-07T02:19:36;11.40;99.90
37938;DHT22;23763;48.130;11.602;2023-08-07T02:22:02;11.40;99.90
37938;DHT22;23763;48.130;11.602;2023-08-07T02:24:28;11.40;99.90
37938;DHT22;23763;48.130;11.602;2023-08-07T02:26:53;11.30;99.90
37938;DHT22;23763;48.130;11.602;2023-08-07T02:29:19;11.30;99.90
37938;DHT22;23763;48.130;11.602;2023-08-07T02:31:45;11.30;99.90
37938;DHT22;23763;48.130;11.602;2023-08-07T02:34:10;11.40;99.90
37938;DHT22;23763;48.130;11.602;2023-08-07T02:36:36;11.40;99.90
37938;DHT22;23763;48.130;11.602;2023-08-07T02:39:01;11.40;99.90
37938;DHT22;23763;48.130;11.602;2023-08-07T02:41:27;11.40;99.90
37938;DHT22;23763;48.130;11.602;2023-08-07T02:43:53;11.40;99.90
37938;DHT22;23763;48.130;11.602;2023-08-07T02:46:19;11.50;99.90
37938;DHT22;23763;48.130;11.602;2023-08-07T02:48:44;11.50;99.90
37938;DHT22;23763;48.130;11.602;2023-08-07T02:51:10;11.50;99.90
37938;DHT22;23763;48.130;11.602;2023-08-07T02:53:36;11.50;99.90
37938;DHT22;23763;48.130;11.602;2023-08-07T02:56:02;11.60;99.90
37938;DHT22;23763;48.130;11.602;2023-08-07T02:58:27;11.60;99.90
37938;DHT22;23763;48.130;11.602;2023-08-07T03:00:53;11.60;99.90
37938;DHT22;23763;48.130;11.602;2023-08-07T03:03:18;11.60;99.90
37938;DHT22;23763;48.130;11.602;2023-08-07T03:05:50;11.60;99.90
37938;DHT22;23763;48.130;11.602;2023-08-07T03:08:16;11.60;99.90
37938;DHT22;23763;48.130;11.602;2023-08-07T03:10:49;11.70;99.90
37938;DHT22;23763;48.130;11.602;2023-08-07T03:13:15;11.70;99.90
37938;DHT22;23763;48.130;11.602;2023-08-07T03:15:40;11.70;99.90
37938;DHT22;23763;48.130;11.602;2023-08-07T03:18:06;11.70;99.90
37938;DHT22;23763;48.130;11.602;2023-08-07T03:20:31;11.70;99.90
37938;DHT22;23763;48.130;11.602;2023-08-07T03:22:57;11.80;99.90
37938;DHT22;23763;48.130;11.602;2023-08-07T03:25:22;11.80;99.90
37938;DHT22;23763;48.130;11.602;2023-08-07T03:27:48;11.80;99.90
37938;DHT22;23763;48.130;11.602;2023-08-07T03:30:13;11.90;99.90
37938;DHT22;23763;48.130;11.602;2023-08-07T03:32:39;11.90;99.90
37938;DHT22;23763;48.130;11.602;2023-08-07T03:35:07;11.90;99.90
37938;DHT22;23763;48.130;11.602;2023-08-07T03:37:33;11.90;99.90
37938;DHT22;23763;48.130;11.602;2023-08-07T03:39:58;11.90;99.90
37938;DHT22;23763;48.130;11.602;2023-08-07T03:42:24;11.90;99.90
37938;DHT22;23763;48.130;11.602;2023-08-07T03:44:49;11.90;99.90
37938;DHT22;23763;48.130;11.602;2023-08-07T03:47:15;11.90;99.90
37938;DHT22;23763;48.130;11.602;2023-08-07T03:49:40;11.90;99.90
37938;DHT22;23763;48.130;11.602;2023-08-07T03:52:06;11.90;99.90
37938;DHT22;23763;48.130;11.602;2023-08-07T03:54:32;11.90;99.90
37938;DHT22;23763;48.130;11.602;2023-08-07T03:56:57;11.90;99.90
37938;DHT22;23763;48.130;11.602;2023-08-07T03:59:23;11.90;99.90
37938;DHT22;23763;48.130;11.602;2023-08-07T04:01:48;11.90;99.90
37938;DHT22;23763;48.130;11.602;2023-08-07T04:04:14;11.90;99.90
37938;DHT22;23763;48.130;11.602;2023-08-07T04:06:40;12.00;99.90
37938;DHT22;23763;48.130;11.602;2023-08-07T04:09:05;12.00;99.90
37938;DHT22;23763;48.130;11.602;2023-08-07T04:11:31;12.00;99.90
37938;DHT22;23763;48.130;11.602;2023-08-07T04:13:58;12.10;99.90
37938;DHT22;23763;48.130;11.602;2023-08-07T04:16:24;12.10;99.90
37938;DHT22;23763;48.130;11.602;2023-08-07T04:18:51;12.10;99.90
37938;DHT22;23763;48.130;11.602;2023-08-07T04:21:16;12.20;99.90
37938;DHT22;23763;48.130;11.602;2023-08-07T04:23:42;12.20;99.90
37938;DHT22;23763;48.130;11.602;2023-08-07T04:26:08;12.10;99.90
37938;DHT22;23763;48.130;11.602;2023-08-07T04:28:33;12.20;99.90
37938;DHT22;23763;48.130;11.602;2023-08-07T04:30:59;12.20;99.90
37938;DHT22;23763;48.130;11.602;2023-08-07T04:33:24;12.20;99.90
37938;DHT22;23763;48.130;11.602;2023-08-07T04:35:50;12.20;99.90
37938;DHT22;23763;48.130;11.602;2023-08-07T04:38:17;12.20;99.90
37938;DHT22;23763;48.130;11.602;2023-08-07T04:40:46;12.20;99.90
37938;DHT22;23763;48.130;11.602;2023-08-07T04:43:12;12.20;99.90
37938;DHT22;23763;48.130;11.602;2023-08-07T04:45:37;12.20;99.90
37938;DHT22;23763;48.130;11.602;2023-08-07T04:48:06;12.30;99.90
37938;DHT22;23763;48.130;11.602;2023-08-07T04:50:31;12.20;99.90
37938;DHT22;23763;48.130;11.602;2023-08-07T04:52:57;12.20;99.90
37938;DHT22;23763;48.130;11.602;2023-08-07T04:55:22;12.30;99.90
37938;DHT22;23763;48.130;11.602;2023-08-07T04:57:48;12.30;99.90
37938;DHT22;23763;48.130;11.602;2023-08-07T05:00:16;12.30;99.90
37938;DHT22;23763;48.130;11.602;2023-08-07T05:02:42;12.30;99.90
37938;DHT22;23763;48.130;11.602;2023-08-07T05:05:08;12.40;99.90
37938;DHT22;23763;48.130;11.602;2023-08-07T05:07:35;12.40;99.90
37938;DHT22;23763;48.130;11.602;2023-08-07T05:10:02;12.40;99.90
37938;DHT22;23763;48.130;11.602;2023-08-07T05:12:28;12.50;99.90
37938;DHT22;23763;48.130;11.602;2023-08-07T05:14:53;12.50;99.90
37938;DHT22;23763;48.130;11.602;2023-08-07T05:17:19;12.60;99.90
37938;DHT22;23763;48.130;11.602;2023-08-07T05:19:46;12.60;99.90
37938;DHT22;23763;48.130;11.602;2023-08-07T05:22:11;12.60;99.90
37938;DHT22;23763;48.130;11.602;2023-08-07T05:24:37;12.60;99.90
37938;DHT22;23763;48.130;11.602;2023-08-07T05:27:07;12.60;99.90
37938;DHT22;23763;48.130;11.602;2023-08-07T05:29:34;12.60;99.90
37938;DHT22;23763;48.130;11.602;2023-08-07T05:31:59;12.60;99.90
37938;DHT22;23763;48.130;11.602;2023-08-07T05:34:25;12.60;99.90
37938;DHT22;23763;48.130;11.602;2023-08-07T05:36:51;12.60;99.90
37938;DHT22;23763;48.130;11.602;2023-08-07T05:39:16;12.60;99.90
37938;DHT22;23763;48.130;11.602;2023-08-07T05:41:42;12.70;99.90
37938;DHT22;23763;48.130;11.602;2023-08-07T05:44:08;12.70;99.90
37938;DHT22;23763;48.130;11.602;2023-08-07T05:46:33;12.70;99.90
37938;DHT22;23763;48.130;11.602;2023-08-07T05:48:59;12.70;99.90
37938;DHT22;23763;48.130;11.602;2023-08-07T05:51:24;12.70;99.90
37938;DHT22;23763;48.130;11.602;2023-08-07T05:53:50;12.70;99.90
37938;DHT22;23763;48.130;11.602;2023-08-07T05:56:15;12.80;99.90
37938;DHT22;23763;48.130;11.602;2023-08-07T05:58:43;12.70;99.90
37938;DHT22;23763;48.130;11.602;2023-08-07T06:01:08;12.80;99.90
37938;DHT22;23763;48.130;11.602;2023-08-07T06:03:34;12.80;99.90
37938;DHT22;23763;48.130;11.602;2023-08-07T06:06:00;12.80;99.90
37938;DHT22;23763;48.130;11.602;2023-08-07T06:08:26;12.80;99.90
37938;DHT22;23763;48.130;11.602;2023-08-07T06:10:51;12.80;99.90
37938;DHT22;23763;48.130;11.602;2023-08-07T06:13:17;12.80;99.90
37938;DHT22;23763;48.130;11.602;2023-08-07T06:15:42;12.90;99.90
37938;DHT22;23763;48.130;11.602;2023-08-07T06:18:08;12.90;99.90
37938;DHT22;23763;48.130;11.602;2023-08-07T06:20:34;13.00;99.90
37938;DHT22;23763;48.130;11.602;2023-08-07T06:23:00;13.10;99.90
37938;DHT22;23763;48.130;11.602;2023-08-07T06:25:25;13.00;99.90
37938;DHT22;23763;48.130;11.602;2023-08-07T06:27:52;13.20;99.90
37938;DHT22;23763;48.130;11.602;2023-08-07T06:30:17;13.20;99.90
37938;DHT22;23763;48.130;11.602;2023-08-07T06:32:43;13.30;99.90
37938;DHT22;23763;48.130;11.602;2023-08-07T06:35:09;13.40;99.90
37938;DHT22;23763;48.130;11.602;2023-08-07T06:37:34;13.60;99.90
37938;DHT22;23763;48.130;11.602;2023-08-07T06:40:00;13.70;99.90
37938;DHT22;23763;48.130;11.602;2023-08-07T06:42:26;13.80;99.90
37938;DHT22;23763;48.130;11.602;2023-08-07T06:44:52;14.00;99.90
37938;DHT22;23763;48.130;11.602;2023-08-07T06:47:17;14.30;99.90
37938;DHT22;23763;48.130;11.602;2023-08-07T06:49:43;14.50;99.90
37938;DHT22;23763;48.130;11.602;2023-08-07T06:52:08;14.50;99.90
37938;DHT22;23763;48.130;11.602;2023-08-07T06:54:34;14.60;99.90
37938;DHT22;23763;48.130;11.602;2023-08-07T06:57:00;14.90;99.90
37938;DHT22;23763;48.130;11.602;2023-08-07T06:59:25;15.00;99.90
37938;DHT22;23763;48.130;11.602;2023-08-07T07:01:51;15.10;99.90
37938;DHT22;23763;48.130;11.602;2023-08-07T07:04:17;15.10;99.90
37938;DHT22;23763;48.130;11.602;2023-08-07T07:06:43;15.10;99.90
37938;DHT22;23763;48.130;11.602;2023-08-07T07:09:09;15.20;99.90
37938;DHT22;23763;48.130;11.602;2023-08-07T07:11:34;15.10;99.90
37938;DHT22;23763;48.130;11.602;2023-08-07T07:14:00;15.20;99.90
37938;DHT22;23763;48.130;11.602;2023-08-07T07:16:26;15.00;99.90
37938;DHT22;23763;48.130;11.602;2023-08-07T07:18:51;15.00;99.90
37938;DHT22;23763;48.130;11.602;2023-08-07T07:21:18;15.40;99.90
37938;DHT22;23763;48.130;11.602;2023-08-07T07:23:43;15.60;99.90
37938;DHT22;23763;48.130;11.602;2023-08-07T07:26:09;15.80;99.90
37938;DHT22;23763;48.130;11.602;2023-08-07T07:28:35;16.30;99.90
37938;DHT22;23763;48.130;11.602;2023-08-07T07:31:00;16.50;99.90
37938;DHT22;23763;48.130;11.602;2023-08-07T07:33:26;16.30;99.90
37938;DHT22;23763;48.130;11.602;2023-08-07T07:35:52;16.40;99.90
37938;DHT22;23763;48.130;11.602;2023-08-07T07:38:17;16.50;99.90
37938;DHT22;23763;48.130;11.602;2023-08-07T07:40:43;16.70;99.90
37938;DHT22;23763;48.130;11.602;2023-08-07T07:43:08;16.50;99.90
37938;DHT22;23763;48.130;11.602;2023-08-07T07:45:34;16.80;99.90
37938;DHT22;23763;48.130;11.602;2023-08-07T07:48:02;16.70;99.90
37938;DHT22;23763;48.130;11.602;2023-08-07T07:50:27;16.30;99.90
37938;DHT22;23763;48.130;11.602;2023-08-07T07:52:53;16.00;99.90
37938;DHT22;23763;48.130;11.602;2023-08-07T07:55:18;15.90;99.90
37938;DHT22;23763;48.130;11.602;2023-08-07T07:57:44;15.80;99.90
37938;DHT22;23763;48.130;11.602;2023-08-07T08:00:11;15.80;99.90
37938;DHT22;23763;48.130;11.602;2023-08-07T08:02:39;15.90;99.90
37938;DHT22;23763;48.130;11.602;2023-08-07T08:05:06;15.70;99.90
37938;DHT22;23763;48.130;11.602;2023-08-07T08:07:32;15.50;99.90
37938;DHT22;23763;48.130;11.602;2023-08-07T08:10:00;15.40;99.90
37938;DHT22;23763;48.130;11.602;2023-08-07T08:12:25;15.30;99.90
37938;DHT22;23763;48.130;11.602;2023-08-07T08:14:51;15.20;99.90
37938;DHT22;23763;48.130;11.602;2023-08-07T08:17:17;15.10;99.90
37938;DHT22;23763;48.130;11.602;2023-08-07T08:19:42;15.20;99.90
37938;DHT22;23763;48.130;11.602;2023-08-07T08:22:08;15.00;99.90
37938;DHT22;23763;48.130;11.602;2023-08-07T08:24:33;14.90;99.90
37938;DHT22;23763;48.130;11.602;2023-08-07T08:27:00;14.80;99.90
37938;DHT22;23763;48.130;11.602;2023-08-07T08:29:25;14.80;99.90
37938;DHT22;23763;48.130;11.602;2023-08-07T08:31:53;14.80;99.90
37938;DHT22;23763;48.130;11.602;2023-08-07T08:34:20;14.90;99.90
37938;DHT22;23763;48.130;11.602;2023-08-07T08:36:47;15.00;99.90
37938;DHT22;23763;48.130;11.602;2023-08-07T08:39:12;14.90;99.90
37938;DHT22;23763;48.130;11.602;2023-08-07T08:41:39;15.10;99.90
37938;DHT22;23763;48.130;11.602;2023-08-07T08:44:06;15.00;99.90
37938;DHT22;23763;48.130;11.602;2023-08-07T08:46:33;15.00;99.90
37938;DHT22;23763;48.130;11.602;2023-08-07T08:49:01;14.90;99.90
37938;DHT22;23763;48.130;11.602;2023-08-07T08:51:27;15.00;99.90
37938;DHT22;23763;48.130;11.602;2023-08-07T08:53:53;15.00;99.90
37938;DHT22;23763;48.130;11.602;2023-08-07T08:56:22;14.90;99.90
37938;DHT22;23763;48.130;11.602;2023-08-07T08:58:49;14.90;99.90
37938;DHT22;23763;48.130;11.602;2023-08-07T09:01:19;14.90;99.90
37938;DHT22;23763;48.130;11.602;2023-08-07T09:03:46;15.00;99.90
37938;DHT22;23763;48.130;11.602;2023-08-07T09:06:13;15.10;99.90
37938;DHT22;23763;48.130;11.602;2023-08-07T09:08:42;15.20;99.90
37938;DHT22;23763;48.130;11.602;2023-08-07T09:11:08;15.40;99.90
37938;DHT22;23763;48.130;11.602;2023-08-07T09:13:36;15.50;99.90
37938;DHT22;23763;48.130;11.602;2023-08-07T09:16:02;15.50;99.90
37938;DHT22;23763;48.130;11.602;2023-08-07T09:18:29;15.30;99.90
37938;DHT22;23763;48.130;11.602;2023-08-07T09:20:55;15.20;99.90
37938;DHT22;23763;48.130;11.602;2023-08-07T09:23:23;15.00;99.90
37938;DHT22;23763;48.130;11.602;2023-08-07T09:25:59;15.00;99.90
37938;DHT22;23763;48.130;11.602;2023-08-07T09:28:26;15.10;99.90
37938;DHT22;23763;48.130;11.602;2023-08-07T09:30:52;15.20;99.90
37938;DHT22;23763;48.130;11.602;2023-08-07T09:33:28;15.20;99.90
37938;DHT22;23763;48.130;11.602;2023-08-07T09:36:01;15.20;99.90
37938;DHT22;23763;48.130;11.602;2023-08-07T09:38:29;15.30;99.90
37938;DHT22;23763;48.130;11.602;2023-08-07T09:40:58;15.40;99.90
37938;DHT22;23763;48.130;11.602;2023-08-07T09:43:24;15.40;99.90
37938;DHT22;23763;48.130;11.602;2023-08-07T09:45:50;15.50;99.90
37938;DHT22;23763;48.130;11.602;2023-08-07T09:48:23;15.80;99.90
37938;DHT22;23763;48.130;11.602;2023-08-07T09:50:50;16.20;99.90
37938;DHT22;23763;48.130;11.602;2023-08-07T09:53:16;16.50;99.90
37938;DHT22;23763;48.130;11.602;2023-08-07T09:55:41;16.70;99.90
37938;DHT22;23763;48.130;11.602;2023-08-07T09:58:08;17.10;99.90
37938;DHT22;23763;48.130;11.602;2023-08-07T10:00:36;17.20;99.90
37938;DHT22;23763;48.130;11.602;2023-08-07T10:03:03;17.50;99.90
37938;DHT22;23763;48.130;11.602;2023-08-07T10:05:30;17.70;99.90
37938;DHT22;23763;48.130;11.602;2023-08-07T10:07:56;17.80;99.90
37938;DHT22;23763;48.130;11.602;2023-08-07T10:10:22;17.70;99.90
37938;DHT22;23763;48.130;11.602;2023-08-07T10:12:49;17.80;99.90
37938;DHT22;23763;48.130;11.602;2023-08-07T10:15:15;17.90;99.90
37938;DHT22;23763;48.130;11.602;2023-08-07T10:17:41;17.90;99.90
37938;DHT22;23763;48.130;11.602;2023-08-07T10:20:07;17.70;99.90
37938;DHT22;23763;48.130;11.602;2023-08-07T10:22:34;17.90;99.90
37938;DHT22;23763;48.130;11.602;2023-08-07T10:25:03;18.10;99.90
37938;DHT22;23763;48.130;11.602;2023-08-07T10:27:32;18.40;99.90
37938;DHT22;23763;48.130;11.602;2023-08-07T10:30:00;18.70;99.90
37938;DHT22;23763;48.130;11.602;2023-08-07T10:32:27;18.60;99.90
37938;DHT22;23763;48.130;11.602;2023-08-07T10:34:53;18.70;99.90
37938;DHT22;23763;48.130;11.602;2023-08-07T10:37:32;18.80;99.90
37938;DHT22;23763;48.130;11.602;2023-08-07T10:40:05;19.00;99.90
37938;DHT22;23763;48.130;11.602;2023-08-07T10:45:18;18.50;99.90
37938;DHT22;23763;48.130;11.602;2023-08-07T10:47:43;18.50;99.90
37938;DHT22;23763;48.130;11.602;2023-08-07T10:50:12;18.50;99.90
37938;DHT22;23763;48.130;11.602;2023-08-07T10:52:41;18.50;99.90
37938;DHT22;23763;48.130;11.602;2023-08-07T10:55:13;18.20;99.90
37938;DHT22;23763;48.130;11.602;2023-08-07T10:57:40;18.30;99.90
37938;DHT22;23763;48.130;11.602;2023-08-07T11:00:06;18.50;99.90
37938;DHT22;23763;48.130;11.602;2023-08-07T11:02:36;18.60;99.90
37938;DHT22;23763;48.130;11.602;2023-08-07T11:05:05;18.60;99.90
37938;DHT22;23763;48.130;11.602;2023-08-07T11:07:31;18.90;99.60
37938;DHT22;23763;48.130;11.602;2023-08-07T11:09:57;19.00;99.70
37938;DHT22;23763;48.130;11.602;2023-08-07T11:12:29;19.00;99.10
37938;DHT22;23763;48.130;11.602;2023-08-07T11:14:56;19.30;99.00
37938;DHT22;23763;48.130;11.602;2023-08-07T11:17:24;19.30;98.50
37938;DHT22;23763;48.130;11.602;2023-08-07T11:19:50;19.40;97.30
37938;DHT22;23763;48.130;11.602;2023-08-07T11:22:16;19.50;97.60
37938;DHT22;23763;48.130;11.602;2023-08-07T11:24:42;19.80;96.80
37938;DHT22;23763;48.130;11.602;2023-08-07T11:27:08;20.00;96.80
37938;DHT22;23763;48.130;11.602;2023-08-07T11:29:33;19.40;97.20
37938;DHT22;23763;48.130;11.602;2023-08-07T11:31:59;19.00;98.20
37938;DHT22;23763;48.130;11.602;2023-08-07T11:34:25;18.70;98.70
37938;DHT22;23763;48.130;11.602;2023-08-07T11:36:51;18.70;98.30
37938;DHT22;23763;48.130;11.602;2023-08-07T11:39:17;18.30;98.90
37938;DHT22;23763;48.130;11.602;2023-08-07T11:41:45;17.90;99.10
37938;DHT22;23763;48.130;11.602;2023-08-07T11:44:11;17.70;99.90
37938;DHT22;23763;48.130;11.602;2023-08-07T11:46:36;17.50;99.90
37938;DHT22;23763;48.130;11.602;2023-08-07T11:49:02;17.30;99.90
37938;DHT22;23763;48.130;11.602;2023-08-07T11:51:29;17.20;99.90
37938;DHT22;23763;48.130;11.602;2023-08-07T11:53:55;17.20;99.90
37938;DHT22;23763;48.130;11.602;2023-08-07T11:56:24;17.20;99.90
37938;DHT22;23763;48.130;11.602;2023-08-07T11:58:52;17.40;99.90
37938;DHT22;23763;48.130;11.602;2023-08-07T12:01:19;17.60;99.90
37938;DHT22;23763;48.130;11.602;2023-08-07T12:03:54;17.80;99.90
37938;DHT22;23763;48.130;11.602;2023-08-07T12:06:21;17.90;99.50
37938;DHT22;23763;48.130;11.602;2023-08-07T12:08:49;18.20;99.20
37938;DHT22;23763;48.130;11.602;2023-08-07T12:11:17;18.30;99.00
37938;DHT22;23763;48.130;11.602;2023-08-07T12:13:44;18.50;98.60
37938;DHT22;23763;48.130;11.602;2023-08-07T12:16:11;18.70;98.00
37938;DHT22;23763;48.130;11.602;2023-08-07T12:18:50;18.60;97.20
37938;DHT22;23763;48.130;11.602;2023-08-07T12:21:18;18.40;96.80
37938;DHT22;23763;48.130;11.602;2023-08-07T12:23:44;18.40;96.80
37938;DHT22;23763;48.130;11.602;2023-08-07T12:26:13;18.60;96.80
37938;DHT22;23763;48.130;11.602;2023-08-07T12:28:38;18.60;96.50
37938;DHT22;23763;48.130;11.602;2023-08-07T12:31:04;18.90;96.50
37938;DHT22;23763;48.130;11.602;2023-08-07T12:33:30;19.30;96.10
37938;DHT22;23763;48.130;11.602;2023-08-07T12:35:57;19.50;94.60
37938;DHT22;23763;48.130;11.602;2023-08-07T12:38:23;19.50;94.10
37938;DHT22;23763;48.130;11.602;2023-08-07T12:40:49;19.30;94.20
37938;DHT22;23763;48.130;11.602;2023-08-07T12:43:15;19.00;94.50
37938;DHT22;23763;48.130;11.602;2023-08-07T12:45:40;19.10;94.60
37938;DHT22;23763;48.130;11.602;2023-08-07T12:48:06;18.90;94.30
37938;DHT22;23763;48.130;11.602;2023-08-07T12:50:32;19.10;94.20
37938;DHT22;23763;48.130;11.602;2023-08-07T12:52:58;19.00;94.70
37938;DHT22;23763;48.130;11.602;2023-08-07T12:55:24;18.90;94.40
37938;DHT22;23763;48.130;11.602;2023-08-07T12:57:50;18.60;94.70
37938;DHT22;23763;48.130;11.602;2023-08-07T13:00:17;18.50;95.50
37938;DHT22;23763;48.130;11.602;2023-08-07T13:02:47;18.20;95.60
37938;DHT22;23763;48.130;11.602;2023-08-07T13:05:14;18.20;95.90
37938;DHT22;23763;48.130;11.602;2023-08-07T13:07:41;18.10;96.00
37938;DHT22;23763;48.130;11.602;2023-08-07T13:10:08;18.00;96.60
37938;DHT22;23763;48.130;11.602;2023-08-07T13:12:39;18.20;96.00
37938;DHT22;23763;48.130;11.602;2023-08-07T13:15:07;18.50;95.70
37938;DHT22;23763;48.130;11.602;2023-08-07T13:17:34;18.50;95.60
37938;DHT22;23763;48.130;11.602;2023-08-07T13:20:00;18.40;95.30
37938;DHT22;23763;48.130;11.602;2023-08-07T13:22:26;18.40;94.40
37938;DHT22;23763;48.130;11.602;2023-08-07T13:24:52;18.80;93.80
37938;DHT22;23763;48.130;11.602;2023-08-07T13:27:17;19.00;93.00
37938;DHT22;23763;48.130;11.602;2023-08-07T13:29:44;19.10;92.10
37938;DHT22;23763;48.130;11.602;2023-08-07T13:32:09;19.40;92.10
37938;DHT22;23763;48.130;11.602;2023-08-07T13:34:38;19.20;92.60
37938;DHT22;23763;48.130;11.602;2023-08-07T13:37:04;19.10;93.00
37938;DHT22;23763;48.130;11.602;2023-08-07T13:39:30;18.80;93.70
37938;DHT22;23763;48.130;11.602;2023-08-07T13:41:56;18.50;94.20
37938;DHT22;23763;48.130;11.602;2023-08-07T13:44:22;18.20;94.30
37938;DHT22;23763;48.130;11.602;2023-08-07T13:46:48;17.90;95.10
37938;DHT22;23763;48.130;11.602;2023-08-07T13:49:14;17.80;95.40
37938;DHT22;23763;48.130;11.602;2023-08-07T13:51:40;17.70;95.60
37938;DHT22;23763;48.130;11.602;2023-08-07T13:54:07;17.90;95.70
37938;DHT22;23763;48.130;11.602;2023-08-07T13:56:33;18.10;95.00
37938;DHT22;23763;48.130;11.602;2023-08-07T13:58:59;18.40;94.50
37938;DHT22;23763;48.130;11.602;2023-08-07T14:01:25;18.70;94.80
37938;DHT22;23763;48.130;11.602;2023-08-07T14:03:51;18.80;95.00
37938;DHT22;23763;48.130;11.602;2023-08-07T14:06:16;19.00;94.70
37938;DHT22;23763;48.130;11.602;2023-08-07T14:08:42;18.80;93.90
37938;DHT22;23763;48.130;11.602;2023-08-07T14:11:07;18.70;93.70
37938;DHT22;23763;48.130;11.602;2023-08-07T14:13:33;18.70;93.80
37938;DHT22;23763;48.130;11.602;2023-08-07T14:15:59;18.80;94.10
37938;DHT22;23763;48.130;11.602;2023-08-07T14:18:24;18.70;93.60
37938;DHT22;23763;48.130;11.602;2023-08-07T14:20:50;18.60;93.90
37938;DHT22;23763;48.130;11.602;2023-08-07T14:23:15;18.40;93.30
37938;DHT22;23763;48.130;11.602;2023-08-07T14:25:41;18.30;93.30
37938;DHT22;23763;48.130;11.602;2023-08-07T14:28:06;18.30;93.10
37938;DHT22;23763;48.130;11.602;2023-08-07T14:30:33;18.10;93.40
37938;DHT22;23763;48.130;11.602;2023-08-07T14:32:59;18.20;93.20
37938;DHT22;23763;48.130;11.602;2023-08-07T14:35:24;18.30;93.80
37938;DHT22;23763;48.130;11.602;2023-08-07T14:37:50;18.30;93.50
37938;DHT22;23763;48.130;11.602;2023-08-07T14:40:16;18.20;93.10
37938;DHT22;23763;48.130;11.602;2023-08-07T14:42:41;18.10;93.70
37938;DHT22;23763;48.130;11.602;2023-08-07T14:45:07;17.90;93.50
37938;DHT22;23763;48.130;11.602;2023-08-07T14:47:33;17.90;94.60
37938;DHT22;23763;48.130;11.602;2023-08-07T14:49:59;17.90;95.10
37938;DHT22;23763;48.130;11.602;2023-08-07T14:52:24;17.70;95.20
37938;DHT22;23763;48.130;11.602;2023-08-07T14:54:50;17.60;95.70
37938;DHT22;23763;48.130;11.602;2023-08-07T14:57:16;17.50;96.00
37938;DHT22;23763;48.130;11.602;2023-08-07T14:59:41;17.50;96.00
37938;DHT22;23763;48.130;11.602;2023-08-07T15:02:07;17.30;96.40
37938;DHT22;23763;48.130;11.602;2023-08-07T15:04:32;17.20;96.70
37938;DHT22;23763;48.130;11.602;2023-08-07T15:06:58;17.20;96.60
37938;DHT22;23763;48.130;11.602;2023-08-07T15:09:23;17.30;96.50
37938;DHT22;23763;48.130;11.602;2023-08-07T15:11:50;17.40;96.80
37938;DHT22;23763;48.130;11.602;2023-08-07T15:14:16;17.40;96.40
37938;DHT22;23763;48.130;11.602;2023-08-07T15:16:42;17.60;96.80
37938;DHT22;23763;48.130;11.602;2023-08-07T15:19:07;17.70;97.00
37938;DHT22;23763;48.130;11.602;2023-08-07T15:21:33;17.80;96.30